Mason, WI (54856)

4:54 PM CDT on August 29, 2014 (GMT -0500)
Moquah North | Change Station
CLOSE
Current Station
Personal Weather Station
Location: Ashland, WI
Elevation: 1175 ft
Nearby Weather Stations
Active Advisory: Areal Flood Advisory

Elev 1175 ft 46.60 °N, 91.08 °W | Updated 4 seconds ago

Mostly Cloudy
Mostly Cloudy
65.8 °F
Feels Like 65.8 °F
N
0.0
Wind Variable Wind from SW
Gusts 0.0 mph

Today
High -- | Low -- °F
--% Chance of Precip.
Yesterday
High -- | Low -- °F
Precip. -- in
6:20 AM 7:48 PM
Waxing Crescent, 17% visible
Pressure 29.76 in
Visibility 10.0 miles
Clouds Scattered Clouds 800 ft
Mostly Cloudy 1300 ft
Overcast 3400 ft
Dew Point 62 °F
Humidity 87%
Rainfall 0.75 in
Snow Depth Not available.
UV 1 out of 12
Pollen 3.10 out of 12
Air Quality Not available.
Flu Activity Not available.
SPECI KASX 292144Z AUTO 18004KT 10SM SCT008 BKN013 OVC034 21/19 A2976 RMK AO2 T02060189

More Conditions Fewer Conditions

Pressure 29.76 in
Visibility 10.0 miles
Clouds Scattered Clouds 800 ft
Mostly Cloudy 1300 ft
Overcast 3400 ft
Dew Point 62 °F
Humidity 87%
Rainfall 0.75 in
Snow Depth Not available.
UV 1 out of 12
Pollen 3.10 out of 12
Air Quality Not available.
Flu Activity Not available.
SPECI KASX 292144Z AUTO 18004KT 10SM SCT008 BKN013 OVC034 21/19 A2976 RMK AO2 T02060189

More Conditions Fewer Conditions

10-Day Weather Forecast

Almanac

Astronomy

Aug. 29, 2014 Rise Set
Actual Time 6:20 AM CDT 7:48 PM CDT
Civil Twilight 5:49 AM CDT 8:20 PM CDT
Nautical Twilight 5:11 AM CDT 8:58 PM CDT
Astronomical Twilight 4:30 AM CDT 9:38 PM CDT
Moon 10:26 AM CDT 9:29 PM CDT
Length of Visible Light 14h 30m
Length of Day
13h 28m
Tomorrow will be 3m 9s shorter.
Waxing Crescent, 17% of the Moon is Illuminated
Today
Waxing Crescent
Sep 2
First Quarter
Sep 8
Full
Sep 15
Last Quarter
Sep 24
New

Today's Extremes

State Highs State Lows

Community

WunderPhotos

Upload Photos

1,748,349 photos uploaded!

Nearby

Snow Depth

Station Depth Elevation
No new snow has been reported.

Earthquake Activity

City Distance Mag. Time & Date
No recent earthquake activity has been reported nearby.
Minimum magnitude displayed is 2.5.

Coastal Water Temperatures

Place Temperature
Duluth, MN 64.9 °F

Nearby Weather Stations